createdAt,value
2017-03-31T00:00:07.049Z,152
2017-03-31T00:01:07.415Z,156
2017-03-31T00:02:07.461Z,156
2017-03-31T00:03:07.517Z,156
2017-03-31T00:04:07.570Z,148
2017-03-31T00:05:07.323Z,152
2017-03-31T00:06:07.679Z,152
2017-03-31T00:07:07.738Z,152
2017-03-31T00:08:07.786Z,152
2017-03-31T00:09:07.846Z,148
2017-03-31T00:10:07.894Z,152
2017-03-31T00:11:07.961Z,152
2017-03-31T00:12:08.005Z,152
2017-03-31T00:13:08.056Z,152
2017-03-31T00:14:08.113Z,152
2017-03-31T00:15:08.165Z,152
2017-03-31T00:16:08.219Z,152
2017-03-31T00:17:08.275Z,152
2017-03-31T00:18:08.326Z,152
2017-03-31T00:19:08.387Z,156
2017-03-31T00:20:08.436Z,152
2017-03-31T00:21:08.494Z,148
2017-03-31T00:22:08.250Z,152
2017-03-31T00:23:08.599Z,152
2017-03-31T00:24:08.353Z,152
2017-03-31T00:25:08.707Z,152
2017-03-31T00:26:08.764Z,152
2017-03-31T00:27:08.819Z,156
2017-03-31T00:28:08.870Z,152
2017-03-31T00:29:08.924Z,156
2017-03-31T00:30:08.983Z,148
2017-03-31T00:31:09.033Z,152
2017-03-31T00:32:09.088Z,156
2017-03-31T00:33:09.143Z,152
2017-03-31T00:34:09.196Z,152
2017-03-31T00:35:09.250Z,156
2017-03-31T00:36:09.002Z,152
2017-03-31T00:37:09.358Z,152
2017-03-31T00:38:09.412Z,152
2017-03-31T00:39:09.467Z,152
2017-03-31T00:40:09.523Z,156
2017-03-31T00:41:09.574Z,156
2017-03-31T00:42:09.328Z,152
2017-03-31T00:43:09.683Z,148
2017-03-31T00:44:09.738Z,152
2017-03-31T00:45:09.791Z,152
2017-03-31T00:46:09.848Z,152
2017-03-31T00:47:09.600Z,156
2017-03-31T00:48:09.652Z,152
2017-03-31T00:49:10.009Z,148
2017-03-31T00:50:10.067Z,152
2017-03-31T00:51:10.122Z,152
2017-03-31T00:52:10.172Z,152
2017-03-31T00:53:10.229Z,156
2017-03-31T00:54:10.287Z,152
2017-03-31T00:55:10.033Z,152
2017-03-31T00:56:10.390Z,152
2017-03-31T00:57:10.444Z,152
2017-03-31T00:58:10.500Z,152
2017-03-31T00:59:10.553Z,152
2017-03-31T01:00:10.633Z,152
2017-03-31T01:01:10.659Z,152
2017-03-31T01:02:10.716Z,152
2017-03-31T01:03:10.769Z,152
2017-03-31T01:04:10.823Z,152
2017-03-31T01:05:10.877Z,152
2017-03-31T01:06:10.933Z,156
2017-03-31T01:07:10.985Z,152
2017-03-31T01:08:11.039Z,152
2017-03-31T01:09:11.093Z,152
2017-03-31T01:10:11.152Z,152
2017-03-31T01:11:11.203Z,152
2017-03-31T01:12:11.257Z,152
2017-03-31T01:13:11.309Z,152
2017-03-31T01:14:11.071Z,152
2017-03-31T01:15:11.421Z,152
2017-03-31T01:16:11.476Z,148
2017-03-31T01:17:11.529Z,156
2017-03-31T01:18:11.581Z,152
2017-03-31T01:19:11.638Z,152
2017-03-31T01:20:11.691Z,152
2017-03-31T01:21:11.749Z,152
2017-03-31T01:22:11.804Z,152
2017-03-31T01:23:11.853Z,156
2017-03-31T01:24:11.910Z,152
2017-03-31T01:25:11.964Z,152
2017-03-31T01:26:12.020Z,152
2017-03-31T01:27:12.072Z,152
2017-03-31T01:28:12.124Z,152
2017-03-31T01:29:12.180Z,152
2017-03-31T01:30:11.933Z,152
2017-03-31T01:31:12.288Z,152
2017-03-31T01:32:12.352Z,152
2017-03-31T01:33:12.402Z,152
2017-03-31T01:34:12.450Z,152
2017-03-31T01:35:12.509Z,152
2017-03-31T01:36:12.561Z,152
2017-03-31T01:37:12.613Z,156
2017-03-31T01:38:12.670Z,152
2017-03-31T01:39:12.422Z,156
2017-03-31T01:40:12.776Z,152
2017-03-31T01:41:12.831Z,156
2017-03-31T01:42:12.890Z,156
2017-03-31T01:43:12.939Z,152
2017-03-31T01:44:12.998Z,152
2017-03-31T01:45:13.053Z,152
2017-03-31T01:46:13.106Z,156
2017-03-31T01:47:13.157Z,156
2017-03-31T01:48:13.211Z,152
2017-03-31T01:49:13.265Z,152
2017-03-31T01:50:13.319Z,156
2017-03-31T01:51:13.375Z,152
2017-03-31T01:52:13.428Z,152
2017-03-31T01:53:13.482Z,148
2017-03-31T01:54:13.540Z,148
2017-03-31T01:55:13.595Z,152
2017-03-31T01:56:13.653Z,152
2017-03-31T01:57:13.698Z,156
2017-03-31T01:58:13.757Z,152
2017-03-31T01:59:13.809Z,152
2017-03-31T02:00:13.862Z,152
2017-03-31T02:01:13.918Z,156
2017-03-31T02:02:13.973Z,152
2017-03-31T02:03:14.026Z,152
2017-03-31T02:04:14.077Z,152
2017-03-31T02:05:14.135Z,152
2017-03-31T02:06:13.886Z,152
2017-03-31T02:07:14.245Z,152
2017-03-31T02:08:14.294Z,156
2017-03-31T02:09:14.348Z,152
2017-03-31T02:10:14.408Z,152
2017-03-31T02:11:14.457Z,152
2017-03-31T02:12:14.509Z,152
2017-03-31T02:13:14.596Z,152
2017-03-31T02:14:14.619Z,152
2017-03-31T02:15:14.674Z,152
2017-03-31T02:16:14.728Z,152
2017-03-31T02:17:14.780Z,152
2017-03-31T02:18:14.834Z,148
2017-03-31T02:19:14.889Z,152
2017-03-31T02:20:14.957Z,152
2017-03-31T02:21:14.997Z,152
2017-03-31T02:22:15.058Z,156
2017-03-31T02:23:15.113Z,156
2017-03-31T02:24:15.164Z,152
2017-03-31T02:25:14.918Z,152
2017-03-31T02:26:14.967Z,152
2017-03-31T02:27:15.361Z,152
2017-03-31T02:28:15.376Z,152
2017-03-31T02:29:15.633Z,152
2017-03-31T02:30:15.488Z,152
2017-03-31T02:31:15.546Z,152
2017-03-31T02:32:15.617Z,152
2017-03-31T02:33:15.655Z,152
2017-03-31T02:34:15.707Z,156
2017-03-31T02:35:15.763Z,152
2017-03-31T02:36:15.813Z,152
2017-03-31T02:37:15.869Z,152
2017-03-31T02:38:15.926Z,156
2017-03-31T02:39:15.977Z,152
2017-03-31T02:40:16.031Z,152
2017-03-31T02:41:16.087Z,152
2017-03-31T02:42:16.139Z,152
2017-03-31T02:43:16.198Z,152
2017-03-31T02:44:16.247Z,152
2017-03-31T02:45:16.302Z,152
2017-03-31T02:46:16.362Z,152
2017-03-31T02:47:16.407Z,152
2017-03-31T02:48:16.459Z,152
2017-03-31T02:49:16.514Z,152
2017-03-31T02:50:16.574Z,156
2017-03-31T02:51:16.630Z,152
2017-03-31T02:52:16.706Z,152
2017-03-31T02:53:16.733Z,152
2017-03-31T02:54:16.788Z,152
2017-03-31T02:55:16.842Z,152
2017-03-31T02:56:16.895Z,148
2017-03-31T02:57:16.966Z,152
2017-03-31T02:58:17.006Z,152
2017-03-31T02:59:17.059Z,152
2017-03-31T03:00:17.316Z,152
2017-03-31T03:01:17.167Z,152
2017-03-31T03:02:17.223Z,152
2017-03-31T03:03:17.277Z,152
2017-03-31T03:04:17.335Z,152
2017-03-31T03:05:17.590Z,152
2017-03-31T03:06:17.437Z,152
2017-03-31T03:07:17.489Z,152
2017-03-31T03:08:17.243Z,152
2017-03-31T03:09:17.605Z,148
2017-03-31T03:10:17.653Z,148
2017-03-31T03:11:17.706Z,148
2017-03-31T03:12:17.465Z,148
2017-03-31T03:13:17.519Z,148
2017-03-31T03:14:17.874Z,156
2017-03-31T03:15:17.626Z,156
2017-03-31T03:16:17.678Z,156
2017-03-31T03:17:18.035Z,152
2017-03-31T03:18:18.091Z,152
2017-03-31T03:19:18.144Z,148
2017-03-31T03:20:18.195Z,152
2017-03-31T03:21:18.249Z,152
2017-03-31T03:22:18.303Z,156
2017-03-31T03:23:18.058Z,148
2017-03-31T03:24:18.417Z,156
2017-03-31T03:25:18.469Z,152
2017-03-31T03:26:18.520Z,148
2017-03-31T03:27:18.579Z,156
2017-03-31T03:28:18.334Z,148
2017-03-31T03:29:18.679Z,152
2017-03-31T03:30:18.738Z,156
2017-03-31T03:31:18.794Z,152
2017-03-31T03:32:18.843Z,156
2017-03-31T03:33:18.899Z,156
2017-03-31T03:34:18.963Z,152
2017-03-31T03:35:19.014Z,152
2017-03-31T03:36:19.266Z,156
2017-03-31T03:37:19.125Z,156
2017-03-31T03:38:19.172Z,156
2017-03-31T03:39:19.228Z,152
2017-03-31T03:40:19.280Z,156
2017-03-31T03:41:19.538Z,152
2017-03-31T03:42:19.389Z,152
2017-03-31T03:43:19.445Z,156
2017-03-31T03:44:19.497Z,152
2017-03-31T03:45:19.557Z,148
2017-03-31T03:46:19.613Z,152
2017-03-31T03:47:19.660Z,152
2017-03-31T03:48:19.712Z,152
2017-03-31T03:49:19.774Z,152
2017-03-31T03:50:19.524Z,152
2017-03-31T03:51:19.874Z,152
2017-03-31T03:52:19.935Z,152
2017-03-31T03:53:19.983Z,152
2017-03-31T03:54:20.039Z,148
2017-03-31T03:55:20.095Z,156
2017-03-31T03:56:20.154Z,148
2017-03-31T03:57:20.204Z,152
2017-03-31T03:58:20.255Z,156
2017-03-31T03:59:20.010Z,156
2017-03-31T04:00:20.067Z,156
2017-03-31T04:01:20.422Z,152
2017-03-31T04:02:20.170Z,152
2017-03-31T04:03:20.229Z,152
2017-03-31T04:04:20.278Z,152
2017-03-31T04:05:20.335Z,148
2017-03-31T04:06:20.394Z,152
2017-03-31T04:07:20.748Z,156
2017-03-31T04:08:20.804Z,148
2017-03-31T04:09:20.855Z,148
2017-03-31T04:10:20.910Z,156
2017-03-31T04:11:20.966Z,152
2017-03-31T04:12:21.015Z,152
2017-03-31T04:13:21.274Z,148
2017-03-31T04:14:21.325Z,152
2017-03-31T04:15:21.180Z,156
2017-03-31T04:16:21.237Z,152
2017-03-31T04:17:21.490Z,152
2017-03-31T04:18:21.342Z,152
2017-03-31T04:19:21.392Z,152
2017-03-31T04:20:21.452Z,156
2017-03-31T04:21:21.509Z,156
2017-03-31T04:22:21.473Z,152
2017-03-31T04:23:21.325Z,148
2017-03-31T04:24:21.669Z,152
2017-03-31T04:25:21.720Z,152
2017-03-31T04:26:21.780Z,148
2017-03-31T04:27:21.535Z,152
2017-03-31T04:28:21.588Z,152
2017-03-31T04:29:21.945Z,148
2017-03-31T04:30:21.990Z,152
2017-03-31T04:31:22.050Z,156
2017-03-31T04:32:22.097Z,156
2017-03-31T04:33:21.855Z,152
2017-03-31T04:34:22.207Z,152
2017-03-31T04:35:22.265Z,156
2017-03-31T04:36:22.316Z,152
2017-03-31T04:37:22.373Z,156
2017-03-31T04:38:22.424Z,156
2017-03-31T04:39:22.479Z,160
2017-03-31T04:40:22.533Z,160
2017-03-31T04:41:22.590Z,160
2017-03-31T04:42:22.643Z,164
2017-03-31T04:43:22.391Z,168
2017-03-31T04:44:22.751Z,164
2017-03-31T04:45:22.804Z,168
2017-03-31T04:46:22.863Z,176
2017-03-31T04:47:22.913Z,180
2017-03-31T04:48:23.165Z,184
2017-03-31T04:49:23.029Z,184
2017-03-31T04:50:23.071Z,192
2017-03-31T04:51:22.826Z,196
2017-03-31T04:52:23.185Z,200
2017-03-31T04:53:23.234Z,208
2017-03-31T04:54:23.489Z,212
2017-03-31T04:55:23.349Z,216
2017-03-31T04:56:23.400Z,232
2017-03-31T04:57:23.453Z,232
2017-03-31T04:58:23.506Z,240
2017-03-31T04:59:23.563Z,256
2017-03-31T05:00:23.316Z,268
2017-03-31T05:01:23.671Z,276
2017-03-31T05:02:23.723Z,292
2017-03-31T05:03:23.473Z,296
2017-03-31T05:04:23.833Z,316
2017-03-31T05:05:23.889Z,328
2017-03-31T05:06:23.943Z,340
2017-03-31T05:07:23.691Z,356
2017-03-31T05:08:23.743Z,368
2017-03-31T05:09:24.103Z,388
2017-03-31T05:10:24.157Z,408
2017-03-31T05:11:23.908Z,424
2017-03-31T05:12:24.264Z,436
2017-03-31T05:13:24.320Z,444
2017-03-31T05:14:24.368Z,464
2017-03-31T05:15:24.425Z,480
2017-03-31T05:16:24.484Z,496
2017-03-31T05:17:24.239Z,512
2017-03-31T05:18:24.588Z,532
2017-03-31T05:19:24.846Z,552
2017-03-31T05:20:24.396Z,572
2017-03-31T05:21:24.753Z,596
2017-03-31T05:22:24.806Z,624
2017-03-31T05:23:24.860Z,652
2017-03-31T05:24:24.908Z,688
2017-03-31T05:25:24.974Z,712
2017-03-31T05:26:25.022Z,736
2017-03-31T05:27:24.771Z,748
2017-03-31T05:28:25.350Z,760
2017-03-31T05:29:25.394Z,776
2017-03-31T05:30:25.233Z,792
2017-03-31T05:31:25.295Z,800
2017-03-31T05:32:25.349Z,828
2017-03-31T05:33:25.398Z,852
2017-03-31T05:34:25.359Z,864
2017-03-31T05:35:25.209Z,884
2017-03-31T05:36:25.561Z,900
2017-03-31T05:37:25.630Z,920
2017-03-31T05:38:25.672Z,936
2017-03-31T05:39:25.757Z,952
2017-03-31T05:40:25.787Z,960
2017-03-31T05:41:25.828Z,972
2017-03-31T05:42:25.914Z,996
2017-03-31T05:43:25.945Z,1000
2017-03-31T05:44:25.995Z,988
2017-03-31T05:45:26.050Z,996
2017-03-31T05:46:26.104Z,1016
2017-03-31T05:47:26.162Z,1040
2017-03-31T05:48:25.907Z,1052
2017-03-31T05:49:25.962Z,1056
2017-03-31T05:50:26.329Z,1056
2017-03-31T05:51:26.377Z,1084
2017-03-31T05:52:26.126Z,1132
2017-03-31T05:53:26.483Z,1164
2017-03-31T05:54:26.539Z,1188
2017-03-31T05:55:26.594Z,1200
2017-03-31T05:56:26.647Z,1212
2017-03-31T05:57:26.703Z,1232
2017-03-31T05:58:26.752Z,1248
2017-03-31T05:59:26.806Z,1264
2017-03-31T06:00:26.559Z,1272
2017-03-31T06:01:26.919Z,1284
2017-03-31T06:02:26.967Z,1300
2017-03-31T06:03:27.025Z,1312
2017-03-31T06:04:27.292Z,1324
2017-03-31T06:05:27.140Z,1336
2017-03-31T06:06:27.182Z,1348
2017-03-31T06:07:27.242Z,1364
2017-03-31T06:08:27.293Z,1368
2017-03-31T06:09:27.348Z,1388
2017-03-31T06:10:27.403Z,1404
2017-03-31T06:11:27.452Z,1420
2017-03-31T06:12:27.512Z,1440
2017-03-31T06:13:27.563Z,1452
2017-03-31T06:14:27.618Z,1464
2017-03-31T06:15:27.671Z,1480
2017-03-31T06:16:27.729Z,1488
2017-03-31T06:17:27.782Z,1496
2017-03-31T06:18:27.835Z,1504
2017-03-31T06:19:27.887Z,1520
2017-03-31T06:20:27.947Z,1532
2017-03-31T06:21:28.000Z,1536
2017-03-31T06:22:28.055Z,1548
2017-03-31T06:23:27.802Z,1560
2017-03-31T06:24:28.164Z,1568
2017-03-31T06:25:28.212Z,1584
2017-03-31T06:26:28.266Z,1596
2017-03-31T06:27:28.018Z,1604
2017-03-31T06:28:28.375Z,1616
2017-03-31T06:29:28.432Z,1632
2017-03-31T06:30:28.482Z,1640
2017-03-31T06:31:28.534Z,1644
2017-03-31T06:32:28.591Z,1656
2017-03-31T06:33:28.652Z,1672
2017-03-31T06:34:28.702Z,1692
2017-03-31T06:35:28.762Z,1720
2017-03-31T06:36:28.808Z,1764
2017-03-31T06:37:28.564Z,1796
2017-03-31T06:38:28.615Z,1828
2017-03-31T06:39:28.670Z,1856
2017-03-31T06:40:29.021Z,1892
2017-03-31T06:41:28.779Z,1932
2017-03-31T06:42:29.134Z,1984
2017-03-31T06:43:29.190Z,2056
2017-03-31T06:44:28.636Z,2148
2017-03-31T06:45:29.299Z,2248
2017-03-31T06:46:29.348Z,2336
2017-03-31T06:47:29.404Z,2448
2017-03-31T06:48:29.459Z,2564
2017-03-31T06:49:29.512Z,2664
2017-03-31T06:50:29.574Z,2736
2017-03-31T06:51:29.321Z,2788
2017-03-31T06:52:29.676Z,2832
2017-03-31T06:53:29.727Z,2892
2017-03-31T06:54:29.786Z,2936
2017-03-31T06:55:29.838Z,2996
2017-03-31T06:56:29.900Z,3064
2017-03-31T06:57:29.945Z,3136
2017-03-31T06:58:30.002Z,3224
2017-03-31T06:59:30.051Z,3296
2017-03-31T07:00:30.111Z,3384
2017-03-31T07:01:30.168Z,3464
2017-03-31T07:02:30.222Z,3544
2017-03-31T07:03:29.969Z,3620
2017-03-31T07:04:30.324Z,3704
2017-03-31T07:05:30.379Z,3796
2017-03-31T07:06:29.832Z,3888
2017-03-31T07:07:30.492Z,3988
2017-03-31T07:08:30.545Z,4096
2017-03-31T07:09:30.603Z,4192
2017-03-31T07:10:30.653Z,4292
2017-03-31T07:11:30.708Z,4392
2017-03-31T07:12:30.771Z,4500
2017-03-31T07:13:30.815Z,4612
2017-03-31T07:14:30.880Z,4740
2017-03-31T07:15:30.936Z,4916
2017-03-31T07:16:31.016Z,5400
2017-03-31T07:17:31.036Z,10368
2017-03-31T07:18:31.136Z,15668
2017-03-31T07:19:30.845Z,17820
2017-03-31T07:20:31.204Z,18936
2017-03-31T07:21:31.261Z,19808
2017-03-31T07:22:31.309Z,21824
2017-03-31T07:23:31.365Z,22816
2017-03-31T07:24:31.419Z,24352
2017-03-31T07:25:31.481Z,25760
2017-03-31T07:26:31.532Z,25344
2017-03-31T07:27:31.585Z,24800
2017-03-31T07:28:31.639Z,25760
2017-03-31T07:29:31.088Z,26080
2017-03-31T07:30:31.751Z,24800
2017-03-31T07:31:31.806Z,24480
2017-03-31T07:32:31.860Z,26432
2017-03-31T07:33:31.914Z,25472
2017-03-31T07:34:31.971Z,24480
2017-03-31T07:35:32.020Z,27232
2017-03-31T07:36:32.079Z,26080
2017-03-31T07:37:32.132Z,26080
2017-03-31T07:38:32.188Z,27616
2017-03-31T07:39:31.939Z,28320
2017-03-31T07:40:32.298Z,28416
2017-03-31T07:41:32.351Z,28864
2017-03-31T07:42:32.413Z,28416
2017-03-31T07:43:32.465Z,26560
2017-03-31T07:44:32.518Z,25632
2017-03-31T07:45:32.273Z,26400
2017-03-31T07:46:32.629Z,27104
2017-03-31T07:47:32.387Z,27488
2017-03-31T07:48:32.741Z,28544
2017-03-31T07:49:32.803Z,28640
2017-03-31T07:50:32.859Z,29312
2017-03-31T07:51:32.910Z,27392
2017-03-31T07:52:32.664Z,26944
2017-03-31T07:53:33.078Z,30528
2017-03-31T07:54:33.083Z,31584
2017-03-31T07:55:33.138Z,32096
2017-03-31T07:56:33.196Z,35776
2017-03-31T07:57:33.252Z,33600
2017-03-31T07:58:33.309Z,30048
2017-03-31T07:59:33.061Z,30560
2017-03-31T08:00:33.426Z,31936
2017-03-31T08:01:33.514Z,32064
2017-03-31T08:02:33.538Z,29408
2017-03-31T08:03:33.600Z,30080
2017-03-31T08:04:33.651Z,31936
2017-03-31T08:05:33.710Z,34752
2017-03-31T08:06:33.763Z,35808
2017-03-31T08:07:33.825Z,34976
2017-03-31T08:08:33.882Z,36512
2017-03-31T08:09:33.640Z,37760
2017-03-31T08:10:34.001Z,38496
2017-03-31T08:11:34.061Z,37504
2017-03-31T08:12:34.111Z,37408
2017-03-31T08:13:33.870Z,37120
2017-03-31T08:14:33.932Z,37952
2017-03-31T08:15:34.295Z,39200
2017-03-31T08:16:34.352Z,36928
2017-03-31T08:17:34.410Z,37440
2017-03-31T08:18:34.159Z,37888
2017-03-31T08:19:34.224Z,38464
2017-03-31T08:20:34.583Z,41248
2017-03-31T08:21:34.641Z,40768
2017-03-31T08:22:34.697Z,41664
2017-03-31T08:23:34.455Z,41472
2017-03-31T08:24:34.820Z,41248
2017-03-31T08:25:34.573Z,43360
2017-03-31T08:26:34.635Z,44448
2017-03-31T08:27:34.690Z,45024
2017-03-31T08:28:35.053Z,47200
2017-03-31T08:29:35.111Z,46880
2017-03-31T08:30:35.171Z,48480
2017-03-31T08:31:35.233Z,45600
2017-03-31T08:32:35.286Z,45280
2017-03-31T08:33:35.346Z,48000
2017-03-31T08:34:35.406Z,48544
2017-03-31T08:35:35.164Z,49568
2017-03-31T08:36:35.220Z,50752
2017-03-31T08:37:35.583Z,47936
2017-03-31T08:38:35.642Z,51040
2017-03-31T08:39:35.702Z,51488
2017-03-31T08:40:35.762Z,49024
2017-03-31T08:41:35.823Z,48000
2017-03-31T08:42:35.879Z,49952
2017-03-31T08:43:35.637Z,49600
2017-03-31T08:44:35.996Z,47552
2017-03-31T08:45:36.057Z,49120
2017-03-31T08:46:36.115Z,48832
2017-03-31T08:47:36.179Z,49152
2017-03-31T08:48:35.936Z,49312
2017-03-31T08:49:36.297Z,49248
2017-03-31T08:50:36.356Z,48960
2017-03-31T08:51:36.113Z,47744
2017-03-31T08:52:36.482Z,51648
2017-03-31T08:53:36.534Z,52448
2017-03-31T08:54:36.598Z,52832
2017-03-31T08:55:36.659Z,42656
2017-03-31T08:56:36.720Z,42656
2017-03-31T08:57:36.775Z,46912
2017-03-31T08:58:36.831Z,48896
2017-03-31T08:59:36.897Z,55392
2017-03-31T09:00:36.955Z,55648
2017-03-31T09:01:36.741Z,53184
2017-03-31T09:02:36.772Z,51840
2017-03-31T09:03:36.529Z,49952
2017-03-31T09:04:37.196Z,50272
2017-03-31T09:05:37.248Z,52864
2017-03-31T09:06:36.710Z,54656
2017-03-31T09:07:37.371Z,50560
2017-03-31T09:08:37.128Z,45472
2017-03-31T09:09:37.493Z,46880
2017-03-31T09:10:37.251Z,52672
2017-03-31T09:11:37.616Z,53536
2017-03-31T09:12:37.371Z,47456
2017-03-31T09:13:37.428Z,48672
2017-03-31T09:14:37.792Z,53728
2017-03-31T09:15:37.548Z,52960
2017-03-31T09:16:37.609Z,50528
2017-03-31T09:17:37.973Z,50432
2017-03-31T09:18:38.030Z,52384
2017-03-31T09:19:38.090Z,50784
2017-03-31T09:20:38.152Z,51552
2017-03-31T09:21:38.216Z,56448
2017-03-31T09:22:38.270Z,55424
2017-03-31T09:23:38.334Z,53824
2017-03-31T09:24:38.394Z,46208
2017-03-31T09:25:38.448Z,39904
2017-03-31T09:26:38.509Z,40192
2017-03-31T09:27:38.271Z,36608
2017-03-31T09:28:38.629Z,39456
2017-03-31T09:29:38.693Z,44896
2017-03-31T09:30:38.746Z,47840
2017-03-31T09:31:38.813Z,46176
2017-03-31T09:32:38.567Z,47744
2017-03-31T09:33:38.930Z,49280
2017-03-31T09:34:38.991Z,81856
2017-03-31T09:35:39.053Z,107616
2017-03-31T09:36:39.114Z,88288
2017-03-31T09:37:39.178Z,88928
2017-03-31T09:38:39.235Z,116288
2017-03-31T09:39:39.301Z,112320
2017-03-31T09:40:39.359Z,65824
2017-03-31T09:41:39.415Z,57920
2017-03-31T09:42:39.477Z,51200
2017-03-31T09:43:39.536Z,43904
2017-03-31T09:44:39.600Z,31488
2017-03-31T09:45:39.657Z,25568
2017-03-31T09:46:39.415Z,32864
2017-03-31T09:47:39.785Z,34432
2017-03-31T09:48:39.840Z,45632
2017-03-31T09:49:39.901Z,51776
2017-03-31T09:50:39.959Z,49248
2017-03-31T09:51:40.025Z,51360
2017-03-31T09:52:40.084Z,56256
2017-03-31T09:53:40.145Z,70208
2017-03-31T09:54:40.201Z,77408
2017-03-31T09:55:39.962Z,80416
2017-03-31T09:56:40.322Z,79456
2017-03-31T09:57:40.384Z,77600
2017-03-31T09:58:40.451Z,70304
2017-03-31T09:59:40.508Z,69504
2017-03-31T10:00:40.571Z,79392
2017-03-31T10:01:40.628Z,57344
2017-03-31T10:02:40.695Z,60448
2017-03-31T10:03:40.449Z,58016
2017-03-31T10:04:40.816Z,34944
2017-03-31T10:05:40.870Z,62688
2017-03-31T10:06:40.940Z,80608
2017-03-31T10:07:40.996Z,79744
2017-03-31T10:08:40.761Z,99424
2017-03-31T10:09:41.116Z,90816
2017-03-31T10:10:41.182Z,73568
2017-03-31T10:11:41.240Z,93696
2017-03-31T10:12:41.298Z,90752
2017-03-31T10:13:41.365Z,90176
2017-03-31T10:14:41.421Z,91936
2017-03-31T10:15:41.484Z,66528
2017-03-31T10:16:41.543Z,62048
2017-03-31T10:17:41.606Z,70176
2017-03-31T10:18:41.669Z,60384
2017-03-31T10:19:41.730Z,61088
2017-03-31T10:20:41.788Z,72960
2017-03-31T10:21:41.852Z,69920
2017-03-31T10:22:41.916Z,48704
2017-03-31T10:23:41.973Z,56320
2017-03-31T10:24:41.741Z,73568
2017-03-31T10:25:42.096Z,56992
2017-03-31T10:26:42.156Z,59072
2017-03-31T10:27:42.217Z,67424
2017-03-31T10:28:42.281Z,60608
2017-03-31T10:29:42.342Z,72928
2017-03-31T10:30:42.113Z,66912
2017-03-31T10:31:42.462Z,50784
2017-03-31T10:32:42.222Z,74560
2017-03-31T10:33:42.287Z,89856
2017-03-31T10:34:42.647Z,69312
2017-03-31T10:35:42.440Z,47488
2017-03-31T10:36:42.470Z,39744
2017-03-31T10:37:42.828Z,79712
2017-03-31T10:38:42.894Z,123296
2017-03-31T10:39:42.953Z,76928
2017-03-31T10:40:43.011Z,40160
2017-03-31T10:41:43.072Z,53824
2017-03-31T10:42:43.139Z,42720
2017-03-31T10:43:43.196Z,41120
2017-03-31T10:44:43.255Z,58048
2017-03-31T10:45:43.320Z,59360
2017-03-31T10:46:43.378Z,59936
2017-03-31T10:47:43.439Z,46944
2017-03-31T10:48:43.499Z,34848
2017-03-31T10:49:43.564Z,39296
2017-03-31T10:50:43.622Z,41376
2017-03-31T10:51:43.689Z,44192
2017-03-31T10:52:43.745Z,41184
2017-03-31T10:53:43.807Z,29408
2017-03-31T10:54:43.864Z,28640
2017-03-31T10:55:43.925Z,39008
2017-03-31T10:56:43.998Z,48544
2017-03-31T10:57:44.050Z,45792
2017-03-31T10:58:44.106Z,35136
2017-03-31T10:59:44.176Z,34176
2017-03-31T11:00:43.931Z,31168
2017-03-31T11:01:44.296Z,16672
2017-03-31T11:02:44.354Z,16416
2017-03-31T11:03:44.415Z,20320
2017-03-31T11:04:44.475Z,22112
2017-03-31T11:05:44.536Z,29952
2017-03-31T11:06:44.598Z,29408
2017-03-31T11:07:44.658Z,29376
2017-03-31T11:08:44.721Z,26944
2017-03-31T11:09:44.480Z,16128
2017-03-31T11:10:44.840Z,15872
2017-03-31T11:11:44.613Z,27936
2017-03-31T11:12:44.968Z,25984
2017-03-31T11:13:45.027Z,22976
2017-03-31T11:14:45.083Z,22016
2017-03-31T11:15:44.846Z,16980
2017-03-31T11:16:45.209Z,17372
2017-03-31T11:17:44.963Z,16436
2017-03-31T11:18:45.033Z,15168
2017-03-31T11:19:45.392Z,16000
2017-03-31T11:20:45.451Z,14936
2017-03-31T11:21:45.212Z,11524
2017-03-31T11:22:45.580Z,10952
2017-03-31T11:23:45.329Z,10876
2017-03-31T11:24:45.698Z,10928
2017-03-31T11:25:45.754Z,10228
2017-03-31T11:26:45.515Z,9784
2017-03-31T11:27:45.877Z,9620
2017-03-31T11:28:45.934Z,9648
2017-03-31T11:29:45.997Z,9372
2017-03-31T11:30:45.759Z,9240
2017-03-31T11:31:45.822Z,8980
2017-03-31T11:32:46.181Z,9008
2017-03-31T11:33:46.242Z,8724
2017-03-31T11:34:46.002Z,8740
2017-03-31T11:35:46.365Z,8708
2017-03-31T11:36:46.421Z,8588
2017-03-31T11:37:46.488Z,8504
2017-03-31T11:38:46.544Z,8492
2017-03-31T11:39:46.606Z,8384
2017-03-31T11:40:46.670Z,8208
2017-03-31T11:41:46.729Z,8152
2017-03-31T11:42:46.784Z,8056
2017-03-31T11:43:46.850Z,7976
2017-03-31T11:44:46.906Z,7876
2017-03-31T11:45:46.972Z,7764
2017-03-31T11:46:47.069Z,7620
2017-03-31T11:47:47.092Z,7536
2017-03-31T11:48:46.849Z,7460
2017-03-31T11:49:46.910Z,7344
2017-03-31T11:50:46.979Z,7276
2017-03-31T11:51:47.032Z,7232
2017-03-31T11:52:47.391Z,7128
2017-03-31T11:53:47.151Z,7052
2017-03-31T11:54:47.545Z,6940
2017-03-31T11:55:47.573Z,6852
2017-03-31T11:56:47.636Z,6656
2017-03-31T11:57:47.697Z,6488
2017-03-31T11:58:47.756Z,6308
2017-03-31T11:59:47.817Z,6048
2017-03-31T12:00:47.876Z,5828
2017-03-31T12:01:47.929Z,5664
2017-03-31T12:02:47.693Z,5536
2017-03-31T12:03:48.098Z,5392
2017-03-31T12:04:48.115Z,5280
2017-03-31T12:05:48.175Z,5184
2017-03-31T12:06:48.235Z,5072
2017-03-31T12:07:48.297Z,4964
2017-03-31T12:08:48.053Z,4844
2017-03-31T12:09:48.419Z,4744
2017-03-31T12:10:48.473Z,4652
2017-03-31T12:11:48.542Z,4552
2017-03-31T12:12:48.293Z,4460
2017-03-31T12:13:48.653Z,4372
2017-03-31T12:14:48.716Z,4300
2017-03-31T12:15:48.808Z,4220
2017-03-31T12:16:48.229Z,4120
2017-03-31T12:17:48.899Z,4012
2017-03-31T12:18:48.955Z,3936
2017-03-31T12:19:49.014Z,3872
2017-03-31T12:20:49.075Z,3816
2017-03-31T12:21:49.136Z,3756
2017-03-31T12:22:49.194Z,3708
2017-03-31T12:23:49.254Z,3660
2017-03-31T12:24:49.316Z,3620
2017-03-31T12:25:49.377Z,3584
2017-03-31T12:26:49.437Z,3556
2017-03-31T12:27:49.496Z,3524
2017-03-31T12:28:49.252Z,3508
2017-03-31T12:29:49.613Z,3492
2017-03-31T12:30:49.377Z,3456
2017-03-31T12:31:49.735Z,3440
2017-03-31T12:32:49.494Z,3416
2017-03-31T12:33:49.856Z,3392
2017-03-31T12:34:49.926Z,3380
2017-03-31T12:35:49.673Z,3360
2017-03-31T12:36:50.029Z,3344
2017-03-31T12:37:50.105Z,3328
2017-03-31T12:38:50.149Z,3312
2017-03-31T12:39:50.213Z,3292
2017-03-31T12:40:50.270Z,3264
2017-03-31T12:41:50.329Z,3244
2017-03-31T12:42:50.391Z,3216
2017-03-31T12:43:50.449Z,3200
2017-03-31T12:44:50.516Z,3184
2017-03-31T12:45:50.572Z,3172
2017-03-31T12:46:50.634Z,3164
2017-03-31T12:47:50.685Z,3144
2017-03-31T12:48:50.744Z,3140
2017-03-31T12:49:50.807Z,3124
2017-03-31T12:50:50.561Z,3108
2017-03-31T12:51:50.926Z,3100
2017-03-31T12:52:50.988Z,3076
2017-03-31T12:53:51.046Z,3060
2017-03-31T12:54:51.105Z,3060
2017-03-31T12:55:51.157Z,3052
2017-03-31T12:56:51.225Z,3036
2017-03-31T12:57:50.974Z,3024
2017-03-31T12:58:51.339Z,3020
2017-03-31T12:59:51.415Z,3016
2017-03-31T13:00:51.453Z,2996
2017-03-31T13:01:51.514Z,2984
2017-03-31T13:02:51.572Z,2976
2017-03-31T13:03:51.327Z,2956
2017-03-31T13:04:51.691Z,2960
2017-03-31T13:05:51.747Z,2936
2017-03-31T13:06:51.802Z,2920
2017-03-31T13:07:51.864Z,2916
2017-03-31T13:08:51.618Z,2900
2017-03-31T13:09:51.677Z,2896
2017-03-31T13:10:52.042Z,2876
2017-03-31T13:11:52.100Z,2864
2017-03-31T13:12:52.155Z,2844
2017-03-31T13:13:52.214Z,2820
2017-03-31T13:14:52.273Z,2796
2017-03-31T13:15:52.330Z,2780
2017-03-31T13:16:52.387Z,2756
2017-03-31T13:17:52.453Z,2740
2017-03-31T13:18:52.510Z,2732
2017-03-31T13:19:52.564Z,2712
2017-03-31T13:20:52.627Z,2696
2017-03-31T13:21:52.080Z,2696